sensor_id;sensor_type;location;lat;lon;timestamp;P1;durP1;ratioP1;P2;durP2;ratioP2
81912;SDS011;71377;50.698;7.164;2023-07-29T00:01:02;3.28;;;1.90;;
81912;SDS011;71377;50.698;7.164;2023-07-29T00:03:29;2.67;;;2.03;;
81912;SDS011;71377;50.698;7.164;2023-07-29T00:05:59;4.07;;;1.67;;
81912;SDS011;71377;50.698;7.164;2023-07-29T00:08:25;1.83;;;1.73;;
81912;SDS011;71377;50.698;7.164;2023-07-29T00:10:52;2.67;;;1.70;;
81912;SDS011;71377;50.698;7.164;2023-07-29T00:13:18;3.00;;;1.60;;
81912;SDS011;71377;50.698;7.164;2023-07-29T00:15:47;2.38;;;1.70;;
81912;SDS011;71377;50.698;7.164;2023-07-29T00:18:14;2.70;;;1.88;;
81912;SDS011;71377;50.698;7.164;2023-07-29T00:20:40;2.45;;;2.00;;
81912;SDS011;71377;50.698;7.164;2023-07-29T00:23:07;5.63;;;1.65;;
81912;SDS011;71377;50.698;7.164;2023-07-29T00:25:33;4.85;;;1.60;;
81912;SDS011;71377;50.698;7.164;2023-07-29T00:27:59;3.42;;;1.75;;
81912;SDS011;71377;50.698;7.164;2023-07-29T00:30:26;2.70;;;1.70;;
81912;SDS011;71377;50.698;7.164;2023-07-29T00:32:52;4.63;;;1.90;;
81912;SDS011;71377;50.698;7.164;2023-07-29T00:35:19;2.40;;;1.95;;
81912;SDS011;71377;50.698;7.164;2023-07-29T00:37:45;3.28;;;1.60;;
81912;SDS011;71377;50.698;7.164;2023-07-29T00:40:15;3.55;;;1.88;;
81912;SDS011;71377;50.698;7.164;2023-07-29T00:42:45;2.85;;;1.88;;
81912;SDS011;71377;50.698;7.164;2023-07-29T00:45:12;6.40;;;1.85;;
81912;SDS011;71377;50.698;7.164;2023-07-29T00:47:38;5.43;;;2.17;;
81912;SDS011;71377;50.698;7.164;2023-07-29T00:50:06;2.85;;;2.22;;
81912;SDS011;71377;50.698;7.164;2023-07-29T00:52:33;3.83;;;2.30;;
81912;SDS011;71377;50.698;7.164;2023-07-29T00:55:00;3.85;;;2.40;;
81912;SDS011;71377;50.698;7.164;2023-07-29T00:57:26;3.15;;;2.03;;
81912;SDS011;71377;50.698;7.164;2023-07-29T00:59:55;2.17;;;1.98;;
81912;SDS011;71377;50.698;7.164;2023-07-29T01:02:24;5.82;;;2.22;;
81912;SDS011;71377;50.698;7.164;2023-07-29T01:04:53;3.92;;;2.13;;
81912;SDS011;71377;50.698;7.164;2023-07-29T01:10:03;3.08;;;2.30;;
81912;SDS011;71377;50.698;7.164;2023-07-29T01:12:48;4.20;;;2.17;;
81912;SDS011;71377;50.698;7.164;2023-07-29T01:15:28;5.40;;;2.33;;
81912;SDS011;71377;50.698;7.164;2023-07-29T01:18:04;2.30;;;2.10;;
81912;SDS011;71377;50.698;7.164;2023-07-29T01:20:33;2.00;;;1.85;;
81912;SDS011;71377;50.698;7.164;2023-07-29T01:23:01;3.47;;;1.70;;
81912;SDS011;71377;50.698;7.164;2023-07-29T01:25:28;4.50;;;2.20;;
81912;SDS011;71377;50.698;7.164;2023-07-29T01:27:54;3.25;;;2.00;;
81912;SDS011;71377;50.698;7.164;2023-07-29T01:30:22;3.47;;;1.90;;
81912;SDS011;71377;50.698;7.164;2023-07-29T01:33:10;3.47;;;1.90;;
81912;SDS011;71377;50.698;7.164;2023-07-29T01:35:43;3.38;;;2.20;;
81912;SDS011;71377;50.698;7.164;2023-07-29T01:38:28;5.25;;;1.90;;
81912;SDS011;71377;50.698;7.164;2023-07-29T01:41:01;3.90;;;1.83;;
81912;SDS011;71377;50.698;7.164;2023-07-29T01:43:28;2.45;;;1.83;;
81912;SDS011;71377;50.698;7.164;2023-07-29T01:45:56;3.20;;;2.10;;
81912;SDS011;71377;50.698;7.164;2023-07-29T01:48:23;3.90;;;2.03;;
81912;SDS011;71377;50.698;7.164;2023-07-29T01:50:49;3.58;;;1.75;;
81912;SDS011;71377;50.698;7.164;2023-07-29T01:53:16;2.38;;;1.80;;
81912;SDS011;71377;50.698;7.164;2023-07-29T01:55:43;2.38;;;2.17;;
81912;SDS011;71377;50.698;7.164;2023-07-29T01:58:11;1.95;;;1.67;;
81912;SDS011;71377;50.698;7.164;2023-07-29T02:00:37;2.47;;;2.00;;
81912;SDS011;71377;50.698;7.164;2023-07-29T02:03:04;2.17;;;1.77;;
81912;SDS011;71377;50.698;7.164;2023-07-29T02:05:30;2.78;;;1.90;;
81912;SDS011;71377;50.698;7.164;2023-07-29T02:07:57;5.75;;;2.20;;
81912;SDS011;71377;50.698;7.164;2023-07-29T02:10:23;3.28;;;2.10;;
81912;SDS011;71377;50.698;7.164;2023-07-29T02:12:50;5.03;;;2.30;;
81912;SDS011;71377;50.698;7.164;2023-07-29T02:15:16;3.05;;;2.50;;
81912;SDS011;71377;50.698;7.164;2023-07-29T02:17:43;2.45;;;2.25;;
81912;SDS011;71377;50.698;7.164;2023-07-29T02:20:09;3.20;;;2.80;;
81912;SDS011;71377;50.698;7.164;2023-07-29T02:22:37;4.28;;;2.47;;
81912;SDS011;71377;50.698;7.164;2023-07-29T02:25:03;4.20;;;2.38;;
81912;SDS011;71377;50.698;7.164;2023-07-29T02:27:30;7.50;;;2.63;;
81912;SDS011;71377;50.698;7.164;2023-07-29T02:29:57;5.88;;;2.30;;
81912;SDS011;71377;50.698;7.164;2023-07-29T02:32:24;3.97;;;2.20;;
81912;SDS011;71377;50.698;7.164;2023-07-29T02:34:51;3.72;;;2.50;;
81912;SDS011;71377;50.698;7.164;2023-07-29T02:37:17;5.68;;;2.20;;
81912;SDS011;71377;50.698;7.164;2023-07-29T02:39:44;6.25;;;2.00;;
81912;SDS011;71377;50.698;7.164;2023-07-29T02:42:11;5.18;;;2.30;;
81912;SDS011;71377;50.698;7.164;2023-07-29T02:44:38;3.10;;;1.65;;
81912;SDS011;71377;50.698;7.164;2023-07-29T02:47:06;1.77;;;1.50;;
81912;SDS011;71377;50.698;7.164;2023-07-29T02:49:32;7.32;;;1.27;;
81912;SDS011;71377;50.698;7.164;2023-07-29T02:51:58;2.65;;;1.23;;
81912;SDS011;71377;50.698;7.164;2023-07-29T02:54:25;3.97;;;1.42;;
81912;SDS011;71377;50.698;7.164;2023-07-29T02:56:51;2.85;;;1.30;;
81912;SDS011;71377;50.698;7.164;2023-07-29T02:59:19;2.17;;;1.20;;
81912;SDS011;71377;50.698;7.164;2023-07-29T03:01:46;1.90;;;0.95;;
81912;SDS011;71377;50.698;7.164;2023-07-29T03:04:12;2.05;;;1.30;;
81912;SDS011;71377;50.698;7.164;2023-07-29T03:06:39;3.38;;;1.38;;
81912;SDS011;71377;50.698;7.164;2023-07-29T03:09:06;1.77;;;1.20;;
81912;SDS011;71377;50.698;7.164;2023-07-29T03:11:32;3.50;;;1.30;;
81912;SDS011;71377;50.698;7.164;2023-07-29T03:13:58;3.40;;;1.02;;
81912;SDS011;71377;50.698;7.164;2023-07-29T03:16:25;4.25;;;1.13;;
81912;SDS011;71377;50.698;7.164;2023-07-29T03:18:51;1.95;;;1.13;;
81912;SDS011;71377;50.698;7.164;2023-07-29T03:21:18;1.23;;;0.90;;
81912;SDS011;71377;50.698;7.164;2023-07-29T03:23:44;2.47;;;1.00;;
81912;SDS011;71377;50.698;7.164;2023-07-29T03:26:10;2.88;;;1.00;;
81912;SDS011;71377;50.698;7.164;2023-07-29T03:28:39;3.28;;;1.20;;
81912;SDS011;71377;50.698;7.164;2023-07-29T03:31:09;3.15;;;1.10;;
81912;SDS011;71377;50.698;7.164;2023-07-29T03:33:36;3.38;;;1.10;;
81912;SDS011;71377;50.698;7.164;2023-07-29T03:36:03;5.22;;;1.30;;
81912;SDS011;71377;50.698;7.164;2023-07-29T03:38:30;2.58;;;1.20;;
81912;SDS011;71377;50.698;7.164;2023-07-29T03:40:57;3.30;;;1.00;;
81912;SDS011;71377;50.698;7.164;2023-07-29T03:43:23;2.47;;;1.02;;
81912;SDS011;71377;50.698;7.164;2023-07-29T03:45:50;2.85;;;1.00;;
81912;SDS011;71377;50.698;7.164;2023-07-29T03:48:16;3.90;;;0.90;;
81912;SDS011;71377;50.698;7.164;2023-07-29T03:50:43;1.52;;;0.60;;
81912;SDS011;71377;50.698;7.164;2023-07-29T03:53:09;1.27;;;0.50;;
81912;SDS011;71377;50.698;7.164;2023-07-29T03:55:36;5.05;;;0.70;;
81912;SDS011;71377;50.698;7.164;2023-07-29T03:58:02;1.85;;;0.70;;
81912;SDS011;71377;50.698;7.164;2023-07-29T04:00:29;2.50;;;0.65;;
81912;SDS011;71377;50.698;7.164;2023-07-29T04:02:55;0.75;;;0.57;;
81912;SDS011;71377;50.698;7.164;2023-07-29T04:05:21;3.95;;;0.77;;
81912;SDS011;71377;50.698;7.164;2023-07-29T04:07:48;2.05;;;0.75;;
81912;SDS011;71377;50.698;7.164;2023-07-29T04:10:14;0.95;;;0.70;;
81912;SDS011;71377;50.698;7.164;2023-07-29T04:12:41;0.90;;;0.70;;
81912;SDS011;71377;50.698;7.164;2023-07-29T04:15:07;2.33;;;0.85;;
81912;SDS011;71377;50.698;7.164;2023-07-29T04:17:34;1.00;;;0.80;;
81912;SDS011;71377;50.698;7.164;2023-07-29T04:20:01;1.92;;;0.90;;
81912;SDS011;71377;50.698;7.164;2023-07-29T04:22:27;2.10;;;0.70;;
81912;SDS011;71377;50.698;7.164;2023-07-29T04:24:54;1.55;;;0.70;;
81912;SDS011;71377;50.698;7.164;2023-07-29T04:27:20;4.20;;;0.80;;
81912;SDS011;71377;50.698;7.164;2023-07-29T04:29:47;0.60;;;0.60;;
81912;SDS011;71377;50.698;7.164;2023-07-29T04:32:13;2.25;;;0.98;;
81912;SDS011;71377;50.698;7.164;2023-07-29T04:34:40;1.42;;;0.77;;
81912;SDS011;71377;50.698;7.164;2023-07-29T04:37:06;4.55;;;1.00;;
81912;SDS011;71377;50.698;7.164;2023-07-29T04:39:32;2.58;;;0.90;;
81912;SDS011;71377;50.698;7.164;2023-07-29T04:41:59;1.15;;;0.80;;
81912;SDS011;71377;50.698;7.164;2023-07-29T04:44:27;1.10;;;0.70;;
81912;SDS011;71377;50.698;7.164;2023-07-29T04:46:53;1.88;;;0.82;;
81912;SDS011;71377;50.698;7.164;2023-07-29T04:49:19;2.58;;;0.90;;
81912;SDS011;71377;50.698;7.164;2023-07-29T04:51:46;1.15;;;0.77;;
81912;SDS011;71377;50.698;7.164;2023-07-29T04:54:12;2.72;;;0.82;;
81912;SDS011;71377;50.698;7.164;2023-07-29T04:56:39;1.83;;;0.88;;
81912;SDS011;71377;50.698;7.164;2023-07-29T04:59:05;1.55;;;0.80;;
81912;SDS011;71377;50.698;7.164;2023-07-29T05:01:34;1.80;;;0.90;;
81912;SDS011;71377;50.698;7.164;2023-07-29T05:04:01;1.30;;;0.80;;
81912;SDS011;71377;50.698;7.164;2023-07-29T05:06:29;1.50;;;0.80;;
81912;SDS011;71377;50.698;7.164;2023-07-29T05:08:59;1.98;;;0.80;;
81912;SDS011;71377;50.698;7.164;2023-07-29T05:11:39;1.15;;;0.75;;
81912;SDS011;71377;50.698;7.164;2023-07-29T05:14:06;1.15;;;0.90;;
81912;SDS011;71377;50.698;7.164;2023-07-29T05:16:32;0.93;;;0.80;;
81912;SDS011;71377;50.698;7.164;2023-07-29T05:18:59;1.80;;;1.05;;
81912;SDS011;71377;50.698;7.164;2023-07-29T05:21:26;1.90;;;1.10;;
81912;SDS011;71377;50.698;7.164;2023-07-29T05:23:52;2.33;;;1.20;;
81912;SDS011;71377;50.698;7.164;2023-07-29T05:26:19;2.10;;;1.10;;
81912;SDS011;71377;50.698;7.164;2023-07-29T05:28:45;2.03;;;0.90;;
81912;SDS011;71377;50.698;7.164;2023-07-29T05:31:12;1.13;;;1.00;;
81912;SDS011;71377;50.698;7.164;2023-07-29T05:33:38;1.55;;;1.00;;
81912;SDS011;71377;50.698;7.164;2023-07-29T05:36:05;1.15;;;0.90;;
81912;SDS011;71377;50.698;7.164;2023-07-29T05:38:31;2.65;;;1.10;;
81912;SDS011;71377;50.698;7.164;2023-07-29T05:40:58;1.73;;;1.00;;
81912;SDS011;71377;50.698;7.164;2023-07-29T05:43:24;3.05;;;1.10;;
81912;SDS011;71377;50.698;7.164;2023-07-29T05:45:51;1.50;;;0.93;;
81912;SDS011;71377;50.698;7.164;2023-07-29T05:48:17;1.98;;;1.05;;
81912;SDS011;71377;50.698;7.164;2023-07-29T05:50:44;2.95;;;1.20;;
81912;SDS011;71377;50.698;7.164;2023-07-29T05:53:10;2.53;;;1.30;;
81912;SDS011;71377;50.698;7.164;2023-07-29T05:55:37;2.95;;;1.20;;
81912;SDS011;71377;50.698;7.164;2023-07-29T05:58:03;4.30;;;1.17;;
81912;SDS011;71377;50.698;7.164;2023-07-29T06:00:29;2.55;;;1.00;;
81912;SDS011;71377;50.698;7.164;2023-07-29T06:02:56;3.28;;;1.20;;
81912;SDS011;71377;50.698;7.164;2023-07-29T06:05:22;1.30;;;1.20;;
81912;SDS011;71377;50.698;7.164;2023-07-29T06:07:49;3.67;;;1.33;;
81912;SDS011;71377;50.698;7.164;2023-07-29T06:10:16;1.20;;;1.00;;
81912;SDS011;71377;50.698;7.164;2023-07-29T06:12:45;0.70;;;0.70;;
81912;SDS011;71377;50.698;7.164;2023-07-29T06:15:12;0.90;;;0.90;;
81912;SDS011;71377;50.698;7.164;2023-07-29T06:17:39;2.17;;;1.05;;
81912;SDS011;71377;50.698;7.164;2023-07-29T06:20:07;1.30;;;1.00;;
81912;SDS011;71377;50.698;7.164;2023-07-29T06:22:34;1.02;;;1.00;;
81912;SDS011;71377;50.698;7.164;2023-07-29T06:25:00;1.10;;;1.00;;
81912;SDS011;71377;50.698;7.164;2023-07-29T06:27:27;3.10;;;1.35;;
81912;SDS011;71377;50.698;7.164;2023-07-29T06:29:54;3.22;;;1.30;;
81912;SDS011;71377;50.698;7.164;2023-07-29T06:32:20;1.20;;;1.10;;
81912;SDS011;71377;50.698;7.164;2023-07-29T06:34:46;3.03;;;1.50;;
81912;SDS011;71377;50.698;7.164;2023-07-29T06:37:13;1.75;;;1.25;;
81912;SDS011;71377;50.698;7.164;2023-07-29T06:39:39;2.72;;;1.38;;
81912;SDS011;71377;50.698;7.164;2023-07-29T06:42:06;1.20;;;1.10;;
81912;SDS011;71377;50.698;7.164;2023-07-29T06:44:32;5.28;;;1.63;;
81912;SDS011;71377;50.698;7.164;2023-07-29T06:46:59;1.40;;;1.30;;
81912;SDS011;71377;50.698;7.164;2023-07-29T06:49:25;3.72;;;1.33;;
81912;SDS011;71377;50.698;7.164;2023-07-29T06:51:52;2.60;;;1.25;;
81912;SDS011;71377;50.698;7.164;2023-07-29T06:54:18;1.88;;;1.30;;
81912;SDS011;71377;50.698;7.164;2023-07-29T06:56:45;2.05;;;1.40;;
81912;SDS011;71377;50.698;7.164;2023-07-29T06:59:11;2.75;;;0.98;;
81912;SDS011;71377;50.698;7.164;2023-07-29T07:01:37;2.85;;;1.20;;
81912;SDS011;71377;50.698;7.164;2023-07-29T07:04:04;1.73;;;1.45;;
81912;SDS011;71377;50.698;7.164;2023-07-29T07:06:30;1.25;;;1.00;;
81912;SDS011;71377;50.698;7.164;2023-07-29T07:08:57;2.20;;;1.10;;
81912;SDS011;71377;50.698;7.164;2023-07-29T07:11:23;2.10;;;1.00;;
81912;SDS011;71377;50.698;7.164;2023-07-29T07:13:50;2.58;;;1.35;;
81912;SDS011;71377;50.698;7.164;2023-07-29T07:16:16;2.60;;;0.95;;
81912;SDS011;71377;50.698;7.164;2023-07-29T07:18:43;4.03;;;1.20;;
81912;SDS011;71377;50.698;7.164;2023-07-29T07:21:09;3.83;;;0.93;;
81912;SDS011;71377;50.698;7.164;2023-07-29T07:23:36;1.80;;;1.00;;
81912;SDS011;71377;50.698;7.164;2023-07-29T07:26:05;4.28;;;1.35;;
81912;SDS011;71377;50.698;7.164;2023-07-29T07:28:31;1.92;;;1.13;;
81912;SDS011;71377;50.698;7.164;2023-07-29T07:30:58;2.05;;;1.17;;
81912;SDS011;71377;50.698;7.164;2023-07-29T07:33:25;3.50;;;1.30;;
81912;SDS011;71377;50.698;7.164;2023-07-29T07:35:52;3.88;;;1.52;;
81912;SDS011;71377;50.698;7.164;2023-07-29T07:38:18;1.80;;;1.33;;
81912;SDS011;71377;50.698;7.164;2023-07-29T07:40:54;1.45;;;1.35;;
81912;SDS011;71377;50.698;7.164;2023-07-29T07:43:22;3.95;;;1.45;;
81912;SDS011;71377;50.698;7.164;2023-07-29T07:45:49;2.13;;;1.33;;
81912;SDS011;71377;50.698;7.164;2023-07-29T07:48:16;2.55;;;1.38;;
81912;SDS011;71377;50.698;7.164;2023-07-29T07:50:43;5.70;;;1.80;;
81912;SDS011;71377;50.698;7.164;2023-07-29T07:53:10;1.88;;;1.50;;
81912;SDS011;71377;50.698;7.164;2023-07-29T07:55:36;1.20;;;1.10;;
81912;SDS011;71377;50.698;7.164;2023-07-29T07:58:03;1.77;;;1.40;;
81912;SDS011;71377;50.698;7.164;2023-07-29T08:00:30;2.05;;;1.20;;
81912;SDS011;71377;50.698;7.164;2023-07-29T08:02:56;2.30;;;1.30;;
81912;SDS011;71377;50.698;7.164;2023-07-29T08:05:23;2.05;;;1.30;;
81912;SDS011;71377;50.698;7.164;2023-07-29T08:07:49;1.95;;;1.35;;
81912;SDS011;71377;50.698;7.164;2023-07-29T08:10:16;2.95;;;1.27;;
81912;SDS011;71377;50.698;7.164;2023-07-29T08:12:42;1.85;;;1.42;;
81912;SDS011;71377;50.698;7.164;2023-07-29T08:15:09;1.67;;;1.30;;
81912;SDS011;71377;50.698;7.164;2023-07-29T08:17:35;1.50;;;1.40;;
81912;SDS011;71377;50.698;7.164;2023-07-29T08:20:02;2.63;;;1.17;;
81912;SDS011;71377;50.698;7.164;2023-07-29T08:22:28;1.30;;;1.20;;
81912;SDS011;71377;50.698;7.164;2023-07-29T08:24:54;2.97;;;1.30;;
81912;SDS011;71377;50.698;7.164;2023-07-29T08:27:21;3.05;;;1.25;;
81912;SDS011;71377;50.698;7.164;2023-07-29T08:29:47;2.63;;;1.20;;
81912;SDS011;71377;50.698;7.164;2023-07-29T08:32:14;2.05;;;1.27;;
81912;SDS011;71377;50.698;7.164;2023-07-29T08:34:40;1.48;;;1.20;;
81912;SDS011;71377;50.698;7.164;2023-07-29T08:37:07;2.15;;;1.20;;
81912;SDS011;71377;50.698;7.164;2023-07-29T08:39:33;1.15;;;1.05;;
81912;SDS011;71377;50.698;7.164;2023-07-29T08:42:07;2.53;;;1.05;;
81912;SDS011;71377;50.698;7.164;2023-07-29T08:44:43;1.15;;;1.00;;
81912;SDS011;71377;50.698;7.164;2023-07-29T08:47:10;1.17;;;1.08;;
81912;SDS011;71377;50.698;7.164;2023-07-29T08:49:38;3.72;;;1.25;;
81912;SDS011;71377;50.698;7.164;2023-07-29T08:52:05;1.30;;;1.20;;
81912;SDS011;71377;50.698;7.164;2023-07-29T08:54:33;2.25;;;1.20;;
81912;SDS011;71377;50.698;7.164;2023-07-29T08:57:01;1.30;;;1.20;;
81912;SDS011;71377;50.698;7.164;2023-07-29T08:59:28;1.75;;;1.10;;
81912;SDS011;71377;50.698;7.164;2023-07-29T09:01:55;1.45;;;1.10;;
81912;SDS011;71377;50.698;7.164;2023-07-29T09:04:23;1.67;;;1.27;;
81912;SDS011;71377;50.698;7.164;2023-07-29T09:06:51;3.22;;;1.15;;
81912;SDS011;71377;50.698;7.164;2023-07-29T09:09:17;2.25;;;1.17;;
81912;SDS011;71377;50.698;7.164;2023-07-29T09:11:44;4.53;;;1.05;;
81912;SDS011;71377;50.698;7.164;2023-07-29T09:14:10;3.45;;;1.23;;
81912;SDS011;71377;50.698;7.164;2023-07-29T09:16:39;2.22;;;1.05;;
81912;SDS011;71377;50.698;7.164;2023-07-29T09:19:06;1.73;;;1.27;;
81912;SDS011;71377;50.698;7.164;2023-07-29T09:21:32;1.38;;;1.17;;
81912;SDS011;71377;50.698;7.164;2023-07-29T09:24:02;1.08;;;1.00;;
81912;SDS011;71377;50.698;7.164;2023-07-29T09:26:30;3.15;;;1.27;;
81912;SDS011;71377;50.698;7.164;2023-07-29T09:28:58;1.52;;;1.00;;
81912;SDS011;71377;50.698;7.164;2023-07-29T09:31:26;2.58;;;1.38;;
81912;SDS011;71377;50.698;7.164;2023-07-29T09:34:01;1.50;;;1.17;;
81912;SDS011;71377;50.698;7.164;2023-07-29T09:36:32;5.13;;;1.10;;
81912;SDS011;71377;50.698;7.164;2023-07-29T09:39:00;3.25;;;1.10;;
81912;SDS011;71377;50.698;7.164;2023-07-29T09:41:27;2.25;;;1.10;;
81912;SDS011;71377;50.698;7.164;2023-07-29T09:43:57;2.20;;;1.10;;
81912;SDS011;71377;50.698;7.164;2023-07-29T09:46:31;1.30;;;1.20;;
81912;SDS011;71377;50.698;7.164;2023-07-29T09:49:00;1.00;;;1.00;;
81912;SDS011;71377;50.698;7.164;2023-07-29T09:51:28;1.52;;;1.20;;
81912;SDS011;71377;50.698;7.164;2023-07-29T09:53:55;1.50;;;1.10;;
81912;SDS011;71377;50.698;7.164;2023-07-29T09:56:25;2.17;;;1.17;;
81912;SDS011;71377;50.698;7.164;2023-07-29T09:58:53;3.10;;;1.48;;
81912;SDS011;71377;50.698;7.164;2023-07-29T10:01:22;4.40;;;1.85;;
81912;SDS011;71377;50.698;7.164;2023-07-29T10:03:49;1.52;;;1.20;;
81912;SDS011;71377;50.698;7.164;2023-07-29T10:06:16;2.22;;;1.40;;
81912;SDS011;71377;50.698;7.164;2023-07-29T10:08:43;1.38;;;1.27;;
81912;SDS011;71377;50.698;7.164;2023-07-29T10:11:11;2.42;;;1.35;;
81912;SDS011;71377;50.698;7.164;2023-07-29T10:13:38;1.58;;;1.23;;
81912;SDS011;71377;50.698;7.164;2023-07-29T10:16:04;1.45;;;1.15;;
81912;SDS011;71377;50.698;7.164;2023-07-29T10:18:32;1.27;;;1.15;;
81912;SDS011;71377;50.698;7.164;2023-07-29T10:21:00;2.13;;;1.40;;
81912;SDS011;71377;50.698;7.164;2023-07-29T10:23:28;1.75;;;1.17;;
81912;SDS011;71377;50.698;7.164;2023-07-29T10:26:04;2.28;;;1.33;;
81912;SDS011;71377;50.698;7.164;2023-07-29T10:28:32;1.80;;;1.40;;
81912;SDS011;71377;50.698;7.164;2023-07-29T10:31:00;1.50;;;1.13;;
81912;SDS011;71377;50.698;7.164;2023-07-29T10:33:29;1.33;;;1.10;;
81912;SDS011;71377;50.698;7.164;2023-07-29T10:36:00;1.40;;;1.30;;
81912;SDS011;71377;50.698;7.164;2023-07-29T10:38:28;1.23;;;1.15;;
81912;SDS011;71377;50.698;7.164;2023-07-29T10:40:56;1.33;;;1.20;;
81912;SDS011;71377;50.698;7.164;2023-07-29T10:43:29;1.40;;;1.05;;
81912;SDS011;71377;50.698;7.164;2023-07-29T10:46:20;1.40;;;1.30;;
81912;SDS011;71377;50.698;7.164;2023-07-29T10:48:56;2.70;;;1.30;;
81912;SDS011;71377;50.698;7.164;2023-07-29T10:54:00;1.85;;;1.27;;
81912;SDS011;71377;50.698;7.164;2023-07-29T10:56:31;2.15;;;1.50;;
81912;SDS011;71377;50.698;7.164;2023-07-29T10:59:22;4.22;;;1.60;;
81912;SDS011;71377;50.698;7.164;2023-07-29T11:01:58;1.70;;;1.60;;
81912;SDS011;71377;50.698;7.164;2023-07-29T11:15:22;3.00;;;1.52;;
81912;SDS011;71377;50.698;7.164;2023-07-29T11:20:17;2.38;;;1.30;;
81912;SDS011;71377;50.698;7.164;2023-07-29T11:22:45;1.70;;;1.35;;
81912;SDS011;71377;50.698;7.164;2023-07-29T11:25:12;1.75;;;1.45;;
81912;SDS011;71377;50.698;7.164;2023-07-29T11:27:40;3.75;;;1.50;;
81912;SDS011;71377;50.698;7.164;2023-07-29T11:30:08;2.08;;;1.20;;
81912;SDS011;71377;50.698;7.164;2023-07-29T11:32:37;1.50;;;1.40;;
81912;SDS011;71377;50.698;7.164;2023-07-29T11:35:06;1.25;;;1.15;;
81912;SDS011;71377;50.698;7.164;2023-07-29T11:37:34;1.88;;;1.30;;
81912;SDS011;71377;50.698;7.164;2023-07-29T11:40:01;1.80;;;1.10;;
81912;SDS011;71377;50.698;7.164;2023-07-29T11:42:31;2.60;;;1.40;;
81912;SDS011;71377;50.698;7.164;2023-07-29T11:45:00;1.23;;;1.13;;
81912;SDS011;71377;50.698;7.164;2023-07-29T11:47:27;1.88;;;1.30;;
81912;SDS011;71377;50.698;7.164;2023-07-29T11:49:54;1.50;;;1.40;;
81912;SDS011;71377;50.698;7.164;2023-07-29T11:52:24;1.92;;;1.50;;
81912;SDS011;71377;50.698;7.164;2023-07-29T11:54:51;3.70;;;1.70;;
81912;SDS011;71377;50.698;7.164;2023-07-29T11:57:19;1.17;;;1.08;;
81912;SDS011;71377;50.698;7.164;2023-07-29T11:59:46;1.50;;;1.40;;
81912;SDS011;71377;50.698;7.164;2023-07-29T12:02:14;1.30;;;1.20;;
81912;SDS011;71377;50.698;7.164;2023-07-29T12:04:43;2.75;;;1.48;;
81912;SDS011;71377;50.698;7.164;2023-07-29T12:07:12;1.15;;;1.08;;
81912;SDS011;71377;50.698;7.164;2023-07-29T12:09:41;1.40;;;1.30;;
81912;SDS011;71377;50.698;7.164;2023-07-29T12:12:09;1.30;;;1.02;;
81912;SDS011;71377;50.698;7.164;2023-07-29T12:14:35;1.48;;;1.10;;
81912;SDS011;71377;50.698;7.164;2023-07-29T12:17:03;1.35;;;1.25;;
81912;SDS011;71377;50.698;7.164;2023-07-29T12:19:34;2.50;;;1.20;;
81912;SDS011;71377;50.698;7.164;2023-07-29T12:22:02;1.10;;;1.00;;
81912;SDS011;71377;50.698;7.164;2023-07-29T12:24:30;1.70;;;1.10;;
81912;SDS011;71377;50.698;7.164;2023-07-29T12:26:57;1.10;;;1.02;;
81912;SDS011;71377;50.698;7.164;2023-07-29T12:29:24;1.13;;;1.02;;
81912;SDS011;71377;50.698;7.164;2023-07-29T12:31:58;1.98;;;1.05;;
81912;SDS011;71377;50.698;7.164;2023-07-29T12:34:26;1.10;;;1.00;;
81912;SDS011;71377;50.698;7.164;2023-07-29T12:36:56;1.20;;;1.10;;
81912;SDS011;71377;50.698;7.164;2023-07-29T12:39:25;1.20;;;1.10;;
81912;SDS011;71377;50.698;7.164;2023-07-29T12:41:57;1.40;;;1.30;;
81912;SDS011;71377;50.698;7.164;2023-07-29T12:44:25;3.47;;;1.17;;
81912;SDS011;71377;50.698;7.164;2023-07-29T12:46:53;2.75;;;1.15;;
81912;SDS011;71377;50.698;7.164;2023-07-29T12:49:19;2.25;;;1.05;;
81912;SDS011;71377;50.698;7.164;2023-07-29T12:51:46;3.08;;;1.38;;
81912;SDS011;71377;50.698;7.164;2023-07-29T12:54:12;1.38;;;1.27;;
81912;SDS011;71377;50.698;7.164;2023-07-29T12:56:39;1.55;;;1.20;;
81912;SDS011;71377;50.698;7.164;2023-07-29T12:59:05;1.20;;;1.10;;
81912;SDS011;71377;50.698;7.164;2023-07-29T13:01:32;1.30;;;1.00;;
81912;SDS011;71377;50.698;7.164;2023-07-29T13:03:58;1.58;;;0.98;;
81912;SDS011;71377;50.698;7.164;2023-07-29T13:06:25;2.15;;;1.05;;
81912;SDS011;71377;50.698;7.164;2023-07-29T13:08:51;1.10;;;1.00;;
81912;SDS011;71377;50.698;7.164;2023-07-29T13:11:18;1.25;;;1.05;;
81912;SDS011;71377;50.698;7.164;2023-07-29T13:13:45;3.42;;;1.05;;
81912;SDS011;71377;50.698;7.164;2023-07-29T13:16:12;1.20;;;1.10;;
81912;SDS011;71377;50.698;7.164;2023-07-29T13:18:39;2.17;;;0.93;;
81912;SDS011;71377;50.698;7.164;2023-07-29T13:21:06;1.10;;;0.88;;
81912;SDS011;71377;50.698;7.164;2023-07-29T13:23:33;1.13;;;0.70;;
81912;SDS011;71377;50.698;7.164;2023-07-29T13:25:59;2.03;;;0.90;;
81912;SDS011;71377;50.698;7.164;2023-07-29T13:28:26;1.15;;;1.05;;
81912;SDS011;71377;50.698;7.164;2023-07-29T13:30:53;1.30;;;0.90;;
81912;SDS011;71377;50.698;7.164;2023-07-29T13:33:19;0.90;;;0.90;;
81912;SDS011;71377;50.698;7.164;2023-07-29T13:35:46;2.17;;;0.90;;
81912;SDS011;71377;50.698;7.164;2023-07-29T13:38:12;2.40;;;1.02;;
81912;SDS011;71377;50.698;7.164;2023-07-29T13:40:38;1.35;;;1.13;;
81912;SDS011;71377;50.698;7.164;2023-07-29T13:43:05;1.25;;;0.98;;
81912;SDS011;71377;50.698;7.164;2023-07-29T13:45:33;2.42;;;0.98;;
81912;SDS011;71377;50.698;7.164;2023-07-29T13:47:59;1.27;;;0.82;;
81912;SDS011;71377;50.698;7.164;2023-07-29T13:50:26;1.45;;;1.08;;
81912;SDS011;71377;50.698;7.164;2023-07-29T13:52:52;1.50;;;1.00;;
81912;SDS011;71377;50.698;7.164;2023-07-29T13:55:19;4.10;;;1.30;;
81912;SDS011;71377;50.698;7.164;2023-07-29T13:57:45;1.30;;;1.10;;
81912;SDS011;71377;50.698;7.164;2023-07-29T14:00:12;1.42;;;1.10;;
81912;SDS011;71377;50.698;7.164;2023-07-29T14:02:39;1.23;;;0.93;;
81912;SDS011;71377;50.698;7.164;2023-07-29T14:05:05;1.20;;;1.02;;
81912;SDS011;71377;50.698;7.164;2023-07-29T14:07:33;2.38;;;1.30;;
81912;SDS011;71377;50.698;7.164;2023-07-29T14:09:59;3.83;;;1.50;;
81912;SDS011;71377;50.698;7.164;2023-07-29T14:12:27;1.92;;;1.25;;
81912;SDS011;71377;50.698;7.164;2023-07-29T14:14:54;1.63;;;1.25;;
81912;SDS011;71377;50.698;7.164;2023-07-29T14:17:20;2.45;;;1.30;;
81912;SDS011;71377;50.698;7.164;2023-07-29T14:19:46;2.13;;;1.70;;
81912;SDS011;71377;50.698;7.164;2023-07-29T14:22:13;1.70;;;1.45;;
81912;SDS011;71377;50.698;7.164;2023-07-29T14:24:39;3.60;;;1.30;;
81912;SDS011;71377;50.698;7.164;2023-07-29T14:27:06;1.50;;;1.40;;
81912;SDS011;71377;50.698;7.164;2023-07-29T14:29:32;1.42;;;1.00;;
81912;SDS011;71377;50.698;7.164;2023-07-29T14:31:59;1.27;;;1.10;;
81912;SDS011;71377;50.698;7.164;2023-07-29T14:34:25;2.13;;;1.30;;
81912;SDS011;71377;50.698;7.164;2023-07-29T14:36:52;1.33;;;1.20;;
81912;SDS011;71377;50.698;7.164;2023-07-29T14:39:18;1.30;;;1.20;;
81912;SDS011;71377;50.698;7.164;2023-07-29T14:41:45;1.48;;;0.93;;
81912;SDS011;71377;50.698;7.164;2023-07-29T14:44:12;1.10;;;0.85;;
81912;SDS011;71377;50.698;7.164;2023-07-29T14:46:39;2.92;;;1.10;;
81912;SDS011;71377;50.698;7.164;2023-07-29T14:49:05;1.55;;;1.02;;
81912;SDS011;71377;50.698;7.164;2023-07-29T14:51:32;1.00;;;1.00;;
81912;SDS011;71377;50.698;7.164;2023-07-29T14:53:58;1.25;;;1.15;;
81912;SDS011;71377;50.698;7.164;2023-07-29T14:56:25;4.70;;;1.40;;
81912;SDS011;71377;50.698;7.164;2023-07-29T14:58:51;1.45;;;1.35;;
81912;SDS011;71377;50.698;7.164;2023-07-29T15:01:18;1.15;;;1.08;;
81912;SDS011;71377;50.698;7.164;2023-07-29T15:03:44;1.40;;;1.00;;
81912;SDS011;71377;50.698;7.164;2023-07-29T15:06:12;4.25;;;1.27;;
81912;SDS011;71377;50.698;7.164;2023-07-29T15:08:38;1.00;;;1.00;;